Time;durP1;ratioP1;P1;durP2;ratioP2;P2;SDS_P1;SDS_P2;PMS_P1;PMS_P2;Temp;Humidity;BMP_temperature;BMP_pressure;BME280_temperature;BME280_humidity;BME280_pressure;Samples;Min_cycle;Max_cycle;Signal;HPM_P1;HPM_P2
2024/03/02 00:02:05;;;;;;;;;;;;;;;21.69;27.14;97693.94;4945494;28;1177;-76
2024/03/02 00:04:30;;;;;;;;;;;;;;;21.71;26.98;97685.00;4944934;28;1142;-76
2024/03/02 00:06:56;;;;;;;;;;;;;;;21.44;27.24;97689.06;4961440;28;881;-75
2024/03/02 00:09:21;;;;;;;;;;;;;;;21.78;26.76;97687.59;4977060;28;976;-75
2024/03/02 00:11:47;;;;;;;;;;;;;;;21.92;26.77;97686.38;4961516;28;1054;-76
2024/03/02 00:14:12;;;;;;;;;;;;;;;21.84;26.80;97689.41;5006805;28;2312;-76
2024/03/02 00:16:38;;;;;;;;;;;;;;;22.08;26.35;97674.88;5000055;28;1312;-76
2024/03/02 00:19:05;;;;;;;;;;;;;;;21.95;26.27;97674.09;4999639;28;963;-76
2024/03/02 00:21:30;;;;;;;;;;;;;;;21.83;26.42;97679.34;4999924;28;941;-75
2024/03/02 00:23:56;;;;;;;;;;;;;;;21.53;26.77;97671.41;5015987;28;1148;-76
2024/03/02 00:26:21;;;;;;;;;;;;;;;21.98;26.35;97662.66;5011311;28;1091;-75
2024/03/02 00:28:50;;;;;;;;;;;;;;;21.85;26.88;97659.84;5003788;28;956;-76
2024/03/02 00:31:15;;;;;;;;;;;;;;;21.90;26.55;97658.47;5038114;28;949;-76
2024/03/02 00:33:45;;;;;;;;;;;;;;;21.96;26.60;97672.84;5036351;28;1898;-76
2024/03/02 00:36:11;;;;;;;;;;;;;;;22.01;26.47;97666.59;5020570;28;1007;-76
2024/03/02 00:38:55;;;;;;;;;;;;;;;22.04;26.56;97662.88;5020216;28;1029;-76
2024/03/02 00:41:27;;;;;;;;;;;;;;;21.83;26.57;97642.50;5037230;28;1145;-75
2024/03/02 00:44:03;;;;;;;;;;;;;;;21.67;26.67;97622.81;5019846;28;961;-76
2024/03/02 00:46:35;;;;;;;;;;;;;;;21.54;27.15;97630.53;5015184;28;1071;-75
2024/03/02 00:49:01;;;;;;;;;;;;;;;21.50;27.19;97636.31;4982638;28;1270;-76
2024/03/02 00:51:28;;;;;;;;;;;;;;;21.69;27.16;97650.69;4999549;28;1007;-75
2024/03/02 00:53:56;;;;;;;;;;;;;;;21.92;26.54;97643.88;5015490;28;1899;-75
2024/03/02 00:56:22;;;;;;;;;;;;;;;21.85;26.86;97645.66;5015814;28;1028;-75
2024/03/02 00:58:48;;;;;;;;;;;;;;;21.99;26.32;97630.25;4982646;28;940;-76
2024/03/02 01:01:13;;;;;;;;;;;;;;;21.99;26.27;97620.97;4999158;28;1022;-76
2024/03/02 01:03:39;;;;;;;;;;;;;;;21.63;26.93;97616.47;5015157;28;964;-77
2024/03/02 01:06:05;;;;;;;;;;;;;;;21.42;27.42;97614.34;4999397;28;1004;-76
2024/03/02 01:08:30;;;;;;;;;;;;;;;21.72;27.11;97629.97;4998651;28;1181;-76
2024/03/02 01:10:56;;;;;;;;;;;;;;;21.95;26.59;97631.63;5015768;28;1017;-76
2024/03/02 01:13:22;;;;;;;;;;;;;;;21.71;26.91;97634.84;5015044;28;1033;-76
2024/03/02 01:15:48;;;;;;;;;;;;;;;21.96;26.60;97621.84;4983129;28;1906;-76
2024/03/02 01:18:13;;;;;;;;;;;;;;;21.84;26.57;97607.28;5032857;28;992;-76
2024/03/02 01:20:39;;;;;;;;;;;;;;;21.70;26.87;97607.75;5036218;28;1011;-76
2024/03/02 01:23:04;;;;;;;;;;;;;;;21.33;26.83;97570.53;5036812;28;948;-76
2024/03/02 01:25:30;;;;;;;;;;;;;;;21.30;27.23;97599.75;5036846;28;920;-76
2024/03/02 01:27:56;;;;;;;;;;;;;;;21.92;26.48;97590.06;5035732;28;944;-75
2024/03/02 01:30:21;;;;;;;;;;;;;;;21.82;26.62;97578.63;5035852;28;962;-75
2024/03/02 01:32:47;;;;;;;;;;;;;;;22.09;26.31;97592.25;5035452;28;891;-76
2024/03/02 01:35:12;;;;;;;;;;;;;;;21.98;26.32;97586.16;5002636;28;1979;-76
2024/03/02 01:37:38;;;;;;;;;;;;;;;21.63;26.96;97576.84;5036763;28;889;-76
2024/03/02 01:40:08;;;;;;;;;;;;;;;21.80;26.59;97581.09;5035627;28;1039;-76
2024/03/02 01:42:37;;;;;;;;;;;;;;;21.33;27.28;97595.22;5035810;28;911;-76
2024/03/02 01:45:07;;;;;;;;;;;;;;;21.66;27.01;97592.94;5017888;28;1031;-76
2024/03/02 01:47:32;;;;;;;;;;;;;;;21.65;26.86;97580.00;4997944;28;1025;-76
2024/03/02 01:49:58;;;;;;;;;;;;;;;22.02;26.31;97580.38;4998208;28;986;-76
2024/03/02 01:52:24;;;;;;;;;;;;;;;22.02;26.28;97583.19;4982213;28;1476;-76
2024/03/02 01:54:49;;;;;;;;;;;;;;;21.73;26.73;97580.56;4998258;28;1898;-76
2024/03/02 01:57:15;;;;;;;;;;;;;;;21.32;27.45;97585.13;5014536;28;977;-76
2024/03/02 01:59:40;;;;;;;;;;;;;;;21.36;27.27;97579.38;4981741;28;1058;-76
2024/03/02 02:02:06;;;;;;;;;;;;;;;21.68;27.05;97561.31;5001974;28;1065;-76
2024/03/02 02:04:32;;;;;;;;;;;;;;;21.91;26.52;97545.97;5002703;28;1065;-75
2024/03/02 02:06:58;;;;;;;;;;;;;;;21.82;26.80;97521.97;5018613;28;1024;-76
2024/03/02 02:09:24;;;;;;;;;;;;;;;22.06;26.38;97513.81;4943673;29;1243;-75
2024/03/02 02:11:50;;;;;;;;;;;;;;;21.86;26.65;97499.19;4944168;29;916;-76
2024/03/02 02:14:16;;;;;;;;;;;;;;;21.83;26.29;97509.41;4944221;29;1976;-76
2024/03/02 02:16:41;;;;;;;;;;;;;;;21.52;26.88;97511.31;4944466;29;927;-76
2024/03/02 02:19:07;;;;;;;;;;;;;;;21.75;26.86;97505.22;4961261;28;998;-76
2024/03/02 02:21:33;;;;;;;;;;;;;;;22.11;26.20;97503.97;4982767;28;1306;-76
2024/03/02 02:23:58;;;;;;;;;;;;;;;21.99;26.31;97507.66;4982179;28;962;-76
2024/03/02 02:26:24;;;;;;;;;;;;;;;21.90;26.68;97510.38;4982547;28;1318;-76
2024/03/02 02:28:50;;;;;;;;;;;;;;;22.00;26.58;97520.56;4982138;28;1030;-76
2024/03/02 02:31:15;;;;;;;;;;;;;;;22.06;26.38;97538.53;4982930;28;958;-76
2024/03/02 02:33:41;;;;;;;;;;;;;;;21.78;26.79;97538.31;4982099;28;1977;-76
2024/03/02 02:36:07;;;;;;;;;;;;;;;21.56;27.03;97543.13;4982724;28;1118;-75
2024/03/02 02:38:36;;;;;;;;;;;;;;;21.66;26.88;97552.47;4981922;28;1055;-76
2024/03/02 02:41:02;;;;;;;;;;;;;;;21.93;26.33;97555.59;5013433;28;1071;-76
2024/03/02 02:43:27;;;;;;;;;;;;;;;22.01;26.65;97564.63;5039230;28;1290;-76
2024/03/02 02:45:53;;;;;;;;;;;;;;;22.09;26.52;97560.28;5039159;28;962;-75
2024/03/02 02:48:18;;;;;;;;;;;;;;;22.01;26.44;97573.13;5038399;28;933;-75
2024/03/02 02:50:44;;;;;;;;;;;;;;;21.84;26.80;97576.13;4985234;28;974;-75
2024/03/02 02:53:09;;;;;;;;;;;;;;;21.66;26.69;97575.94;5017646;28;1023;-76
2024/03/02 02:55:37;;;;;;;;;;;;;;;21.50;27.06;97573.22;4985241;28;1903;-75
2024/03/02 02:58:03;;;;;;;;;;;;;;;21.84;26.73;97576.13;4985439;28;915;-76
2024/03/02 03:00:28;;;;;;;;;;;;;;;21.92;26.58;97582.34;5017790;28;998;-76
2024/03/02 03:02:54;;;;;;;;;;;;;;;22.01;26.36;97582.41;5017438;28;1037;-75
2024/03/02 03:05:19;;;;;;;;;;;;;;;22.07;26.40;97588.28;5017883;28;1058;-75
2024/03/02 03:07:45;;;;;;;;;;;;;;;21.73;26.71;97581.34;5017301;28;1019;-75
2024/03/02 03:10:11;;;;;;;;;;;;;;;21.43;27.09;97591.25;5017368;28;1006;-76
2024/03/02 03:12:36;;;;;;;;;;;;;;;21.22;27.53;97587.03;5000951;28;957;-75
2024/03/02 03:15:02;;;;;;;;;;;;;;;21.72;27.01;97573.31;4968350;28;1982;-75
2024/03/02 03:17:28;;;;;;;;;;;;;;;21.96;26.73;97582.19;5001254;28;1229;-76
2024/03/02 03:19:54;;;;;;;;;;;;;;;21.92;26.63;97575.88;5017420;28;1029;-75
2024/03/02 03:22:20;;;;;;;;;;;;;;;21.85;26.75;97583.34;5028072;28;907;-77
2024/03/02 03:24:45;;;;;;;;;;;;;;;21.98;26.61;97585.38;5037833;28;932;-76
2024/03/02 03:27:11;;;;;;;;;;;;;;;21.70;27.00;97585.09;5039369;28;965;-75
2024/03/02 03:29:37;;;;;;;;;;;;;;;21.15;27.55;97592.94;5021607;28;955;-76
2024/03/02 03:32:03;;;;;;;;;;;;;;;21.32;27.52;97585.13;5038108;28;924;-75
2024/03/02 03:34:29;;;;;;;;;;;;;;;21.58;27.25;97580.25;5037902;28;1906;-76
2024/03/02 03:36:54;;;;;;;;;;;;;;;21.76;26.89;97574.78;5039228;28;1009;-76
2024/03/02 03:39:20;;;;;;;;;;;;;;;22.02;26.58;97574.69;5020706;28;1022;-76
2024/03/02 03:41:45;;;;;;;;;;;;;;;22.01;26.52;97573.13;5038905;28;1009;-76
2024/03/02 03:44:11;;;;;;;;;;;;;;;21.59;27.03;97571.28;5020422;28;990;-76
2024/03/02 03:46:37;;;;;;;;;;;;;;;21.49;27.09;97577.31;5038715;28;928;-76
2024/03/02 03:49:03;;;;;;;;;;;;;;;21.73;26.97;97587.03;5037674;28;922;-75
2024/03/02 03:51:30;;;;;;;;;;;;;;;21.87;26.46;97590.63;5038004;28;939;-76
2024/03/02 03:53:55;;;;;;;;;;;;;;;21.88;26.59;97578.06;5037378;28;2310;-76
2024/03/02 03:56:21;;;;;;;;;;;;;;;22.01;26.34;97576.75;5037790;28;1289;-76
2024/03/02 03:58:46;;;;;;;;;;;;;;;21.82;26.63;97575.78;5037508;28;949;-75
2024/03/02 04:01:12;;;;;;;;;;;;;;;21.66;26.83;97570.28;5037768;28;1204;-76
2024/03/02 04:03:38;;;;;;;;;;;;;;;21.66;26.66;97570.28;5020695;28;960;-76
2024/03/02 04:06:03;;;;;;;;;;;;;;;21.83;26.79;97563.22;5020654;28;947;-76
2024/03/02 04:08:29;;;;;;;;;;;;;;;21.70;26.93;97565.28;5019311;28;945;-76
2024/03/02 04:10:54;;;;;;;;;;;;;;;21.77;26.60;97572.75;5038956;28;993;-76
2024/03/02 04:13:20;;;;;;;;;;;;;;;22.08;26.13;97572.88;5015637;28;976;-77
2024/03/02 04:15:45;;;;;;;;;;;;;;;22.04;26.49;97567.34;4999995;28;1898;-75
2024/03/02 04:18:11;;;;;;;;;;;;;;;21.83;26.60;97579.41;4976898;28;864;-76
2024/03/02 04:20:37;;;;;;;;;;;;;;;21.85;26.26;97577.69;4944869;28;861;-76
2024/03/02 04:23:02;;;;;;;;;;;;;;;21.50;26.68;97582.53;4976408;28;782;-76
2024/03/02 04:25:28;;;;;;;;;;;;;;;21.64;27.09;97589.75;4960941;28;920;-76
2024/03/02 04:27:53;;;;;;;;;;;;;;;21.82;26.76;97575.78;4960556;28;903;-76
2024/03/02 04:30:19;;;;;;;;;;;;;;;21.72;26.99;97579.00;4977008;28;895;-75
2024/03/02 04:32:48;;;;;;;;;;;;;;;21.81;26.89;97588.38;4976585;28;1009;-76
2024/03/02 04:35:14;;;;;;;;;;;;;;;21.95;26.52;97591.94;4976438;28;1902;-75
2024/03/02 04:37:39;;;;;;;;;;;;;;;21.80;26.74;97589.59;4960463;28;1066;-75
2024/03/02 04:40:08;;;;;;;;;;;;;;;21.44;26.88;97586.38;4944302;28;1157;-75
2024/03/02 04:42:34;;;;;;;;;;;;;;;21.09;27.47;97600.41;4937829;29;996;-76
2024/03/02 04:44:59;;;;;;;;;;;;;;;21.56;27.30;97599.75;4952956;29;1057;-76
2024/03/02 04:47:25;;;;;;;;;;;;;;;22.00;26.44;97588.53;4957575;29;925;-77
2024/03/02 04:49:50;;;;;;;;;;;;;;;22.11;26.07;97594.66;4959774;28;1210;-76
2024/03/02 04:52:17;;;;;;;;;;;;;;;21.95;26.47;97597.63;4980017;28;1033;-75
2024/03/02 04:57:26;;;;;;;;;;;;;;;21.43;27.29;97593.28;4956904;29;975;-75
2024/03/02 04:59:52;;;;;;;;;;;;;;;21.52;27.02;97582.06;4941097;29;1071;-74
2024/03/02 05:02:17;;;;;;;;;;;;;;;21.82;26.63;97572.97;4941416;29;970;-75
2024/03/02 05:04:43;;;;;;;;;;;;;;;21.78;26.75;97586.44;4956966;29;996;-74
2024/03/02 05:07:08;;;;;;;;;;;;;;;22.13;26.29;97597.84;4941422;29;1196;-74
2024/03/02 05:09:34;;;;;;;;;;;;;;;21.93;26.26;97600.13;4940797;29;1189;-74
2024/03/02 05:12:29;;;;;;;;;;;;;;;21.76;26.57;97586.13;4941160;29;1164;-75
2024/03/02 05:14:54;;;;;;;;;;;;;;;21.61;26.83;97595.56;4944290;29;1903;-75
2024/03/02 05:17:19;;;;;;;;;;;;;;;21.80;26.78;97586.78;4940968;29;1102;-75
2024/03/02 05:19:45;;;;;;;;;;;;;;;21.89;26.55;97588.13;4948873;28;978;-74
2024/03/02 05:22:10;;;;;;;;;;;;;;;21.86;26.67;97589.81;5014971;28;1044;-75
2024/03/02 05:24:36;;;;;;;;;;;;;;;22.03;26.13;97593.31;4982197;28;788;-75
2024/03/02 05:27:02;;;;;;;;;;;;;;;22.29;26.08;97588.38;4999875;28;790;-74
2024/03/02 05:29:27;;;;;;;;;;;;;;;21.97;26.26;97595.13;5036678;28;744;-74
2024/03/02 05:31:53;;;;;;;;;;;;;;;21.61;26.90;97599.16;4985792;28;1645;-74
2024/03/02 05:34:18;;;;;;;;;;;;;;;21.27;27.20;97589.28;5035181;28;1965;-74
2024/03/02 05:36:44;;;;;;;;;;;;;;;21.55;27.18;97592.47;4997578;28;1019;-74
2024/03/02 05:39:10;;;;;;;;;;;;;;;21.79;26.86;97590.06;5014626;28;1052;-74
2024/03/02 05:41:35;;;;;;;;;;;;;;;21.89;26.72;97582.47;4982033;28;784;-74
2024/03/02 05:44:01;;;;;;;;;;;;;;;21.89;26.66;97588.13;4981864;28;1142;-74
2024/03/02 05:46:27;;;;;;;;;;;;;;;22.05;26.48;97582.28;4998194;28;798;-74
2024/03/02 05:48:52;;;;;;;;;;;;;;;21.56;27.03;97572.22;4998245;28;883;-74
2024/03/02 05:51:18;;;;;;;;;;;;;;;21.26;27.47;97575.59;4998053;28;946;-74
2024/03/02 05:53:43;;;;;;;;;;;;;;;21.07;27.62;97566.09;4998050;28;771;-73
2024/03/02 05:56:09;;;;;;;;;;;;;;;21.54;27.11;97559.75;4975108;28;1993;-75
2024/03/02 06:01:09;;;;;;;;;;;;;;;21.85;26.56;97565.56;4975280;28;927;-74
2024/03/02 06:03:35;;;;;;;;;;;;;;;21.94;26.56;97562.84;4943321;28;879;-74
2024/03/02 06:06:01;;;;;;;;;;;;;;;22.02;26.13;97554.88;4959664;28;1139;-74
2024/03/02 06:08:26;;;;;;;;;;;;;;;21.85;26.16;97566.38;4958508;28;1253;-74
2024/03/02 06:10:52;;;;;;;;;;;;;;;21.77;26.35;97559.38;4930476;28;995;-75
2024/03/02 06:13:17;;;;;;;;;;;;;;;21.73;26.75;97557.91;4977997;28;775;-74
2024/03/02 06:15:43;;;;;;;;;;;;;;;21.79;26.81;97554.03;4994975;28;1914;-74
2024/03/02 06:18:08;;;;;;;;;;;;;;;21.88;26.45;97558.22;4978124;28;1249;-74
2024/03/02 06:20:34;;;;;;;;;;;;;;;21.99;26.19;97561.47;4978605;28;1077;-74
2024/03/02 06:23:00;;;;;;;;;;;;;;;21.73;26.73;97558.72;4978410;28;1088;-75
2024/03/02 06:25:26;;;;;;;;;;;;;;;21.68;26.78;97556.44;4978466;28;879;-74
2024/03/02 06:27:51;;;;;;;;;;;;;;;21.47;26.87;97563.63;5010483;28;1156;-75
2024/03/02 06:30:17;;;;;;;;;;;;;;;21.84;26.58;97553.47;5034910;28;687;-75
2024/03/02 06:32:42;;;;;;;;;;;;;;;21.44;26.90;97566.56;5036476;28;819;-74
2024/03/02 06:35:09;;;;;;;;;;;;;;;21.82;26.64;97572.97;5018771;28;1910;-73
2024/03/02 06:37:36;;;;;;;;;;;;;;;21.92;26.40;97570.22;5019043;28;1124;-74
2024/03/02 06:40:02;;;;;;;;;;;;;;;21.82;26.46;97567.28;5001802;28;1041;-74
2024/03/02 06:42:32;;;;;;;;;;;;;;;21.26;27.23;97562.25;5034973;28;775;-74
2024/03/02 06:44:58;;;;;;;;;;;;;;;21.56;27.01;97560.91;5018388;28;1500;-74
2024/03/02 06:47:24;;;;;;;;;;;;;;;21.90;26.40;97567.03;5020679;28;1244;-74
2024/03/02 06:49:49;;;;;;;;;;;;;;;21.98;26.46;97569.19;5022166;28;755;-74
2024/03/02 06:52:15;;;;;;;;;;;;;;;21.85;26.50;97571.25;5040165;28;794;-74
2024/03/02 06:54:40;;;;;;;;;;;;;;;21.79;26.84;97565.38;5005470;28;1914;-73
2024/03/02 06:57:06;;;;;;;;;;;;;;;21.89;26.44;97566.25;5038274;28;827;-74
2024/03/02 06:59:31;;;;;;;;;;;;;;;21.42;27.10;97577.56;5038484;28;679;-74
2024/03/02 07:01:57;;;;;;;;;;;;;;;21.52;26.97;97565.88;5039790;28;819;-74
2024/03/02 07:04:22;;;;;;;;;;;;;;;21.69;26.51;97562.91;5038479;28;897;-73
2024/03/02 07:06:48;;;;;;;;;;;;;;;22.05;26.36;97559.63;5039794;28;817;-74
2024/03/02 07:09:13;;;;;;;;;;;;;;;21.78;26.81;97563.78;5037998;28;838;-75
2024/03/02 07:11:39;;;;;;;;;;;;;;;21.93;26.59;97561.25;5039420;28;771;-75
2024/03/02 07:14:04;;;;;;;;;;;;;;;21.91;26.57;97565.78;5039244;28;1914;-74
2024/03/02 07:16:32;;;;;;;;;;;;;;;21.78;26.52;97566.63;5039610;28;704;-74
2024/03/02 07:18:58;;;;;;;;;;;;;;;21.75;26.39;97561.06;5038194;28;768;-74
2024/03/02 07:21:24;;;;;;;;;;;;;;;21.58;26.90;97563.25;5038289;28;712;-74
2024/03/02 07:23:50;;;;;;;;;;;;;;;21.91;26.55;97563.75;5021253;28;1119;-74
2024/03/02 07:26:16;;;;;;;;;;;;;;;21.85;26.60;97569.19;5038122;28;787;-74
2024/03/02 07:28:42;;;;;;;;;;;;;;;21.92;26.54;97570.22;5016414;28;1036;-74
2024/03/02 07:31:07;;;;;;;;;;;;;;;21.85;26.69;97565.56;5017646;28;883;-73
2024/03/02 07:33:33;;;;;;;;;;;;;;;21.88;26.49;97569.56;5016490;28;980;-73
2024/03/02 07:36:02;;;;;;;;;;;;;;;21.57;27.02;97562.47;4984108;28;1895;-75
2024/03/02 07:38:28;;;;;;;;;;;;;;;21.37;27.31;97569.63;4984381;28;1288;-74
2024/03/02 07:40:54;;;;;;;;;;;;;;;21.78;26.84;97566.63;5000840;28;1237;-74
2024/03/02 07:43:19;;;;;;;;;;;;;;;21.81;26.68;97565.72;5016482;28;773;-74
2024/03/02 07:45:45;;;;;;;;;;;;;;;21.92;26.27;97559.69;4961564;28;936;-75
2024/03/02 07:48:11;;;;;;;;;;;;;;;21.99;26.42;97561.47;4922943;29;1268;-75
2024/03/02 07:50:37;;;;;;;;;;;;;;;22.11;26.12;97560.66;4907756;29;1245;-74
2024/03/02 07:53:03;;;;;;;;;;;;;;;21.73;26.60;97550.22;4923097;29;1012;-74
2024/03/02 07:55:29;;;;;;;;;;;;;;;21.79;26.30;97551.22;4923190;29;1968;-74
2024/03/02 07:57:55;;;;;;;;;;;;;;;21.50;26.85;97550.59;4922825;29;939;-74
2024/03/02 08:00:20;;;;;;;;;;;;;;;21.59;26.93;97547.84;4937225;29;788;-74
2024/03/02 08:02:46;;;;;;;;;;;;;;;21.99;26.46;97558.63;4903829;29;1122;-74
2024/03/02 08:05:11;;;;;;;;;;;;;;;21.82;26.57;97555.97;4919561;29;939;-74
2024/03/02 08:07:37;;;;;;;;;;;;;;;21.88;26.44;97553.34;4919422;29;1100;-74
2024/03/02 08:10:03;;;;;;;;;;;;;;;21.92;26.19;97548.34;4903761;29;1134;-74
2024/03/02 08:12:28;;;;;;;;;;;;;;;21.45;27.18;97559.66;4919807;29;839;-75
2024/03/02 08:14:54;;;;;;;;;;;;;;;21.35;27.25;97560.78;4919544;29;1966;-74
2024/03/02 08:17:19;;;;;;;;;;;;;;;21.69;26.88;97560.84;4919732;29;878;-74
2024/03/02 08:19:45;;;;;;;;;;;;;;;21.96;26.26;97560.31;4931715;29;927;-74
2024/03/02 08:22:10;;;;;;;;;;;;;;;21.91;26.64;97557.28;4929431;28;936;-74
2024/03/02 08:24:36;;;;;;;;;;;;;;;21.96;26.59;97568.03;4980105;28;897;-74
2024/03/02 08:27:01;;;;;;;;;;;;;;;21.88;26.42;97558.22;4980469;28;796;-74
2024/03/02 08:29:27;;;;;;;;;;;;;;;21.62;26.71;97561.13;4957251;29;979;-74
2024/03/02 08:31:53;;;;;;;;;;;;;;;21.35;27.26;97567.25;4925976;29;1216;-74
2024/03/02 08:34:18;;;;;;;;;;;;;;;21.66;27.12;97564.63;4925490;29;1979;-74
2024/03/02 08:36:44;;;;;;;;;;;;;;;21.61;27.09;97568.03;4919066;29;938;-75
2024/03/02 08:39:15;;;;;;;;;;;;;;;21.82;26.65;97564.47;4922977;28;1052;-74
2024/03/02 08:41:49;;;;;;;;;;;;;;;22.03;26.40;97576.31;4961156;28;795;-75
2024/03/02 08:44:15;;;;;;;;;;;;;;;21.62;27.01;97569.59;4928401;28;866;-75
2024/03/02 08:46:41;;;;;;;;;;;;;;;21.43;26.98;97573.47;4918887;29;818;-74
2024/03/02 08:49:06;;;;;;;;;;;;;;;21.08;27.44;97564.84;4918798;29;924;-74
2024/03/02 08:51:32;;;;;;;;;;;;;;;21.44;27.36;97572.22;4918625;29;802;-74
2024/03/02 08:53:58;;;;;;;;;;;;;;;21.65;26.89;97585.66;4918556;29;1960;-74
2024/03/02 08:56:23;;;;;;;;;;;;;;;21.81;26.54;97585.53;4903355;29;1141;-75
2024/03/02 08:58:49;;;;;;;;;;;;;;;21.96;26.30;97590.69;4903106;29;1529;-74
2024/03/02 09:01:15;;;;;;;;;;;;;;;21.76;26.56;97590.97;4934117;29;996;-74
2024/03/02 09:03:41;;;;;;;;;;;;;;;21.62;26.90;97597.91;4921312;29;751;-74
2024/03/02 09:06:06;;;;;;;;;;;;;;;21.45;27.01;97593.59;4937967;29;1121;-74
2024/03/02 09:08:32;;;;;;;;;;;;;;;21.65;27.03;97591.31;4940337;29;788;-74
2024/03/02 09:10:58;;;;;;;;;;;;;;;21.69;26.87;97586.34;4940753;29;799;-74
2024/03/02 09:13:24;;;;;;;;;;;;;;;21.91;26.51;97592.06;4918133;29;1122;-73
2024/03/02 09:15:49;;;;;;;;;;;;;;;22.01;26.29;97592.94;4902719;29;1915;-74
2024/03/02 09:18:15;;;;;;;;;;;;;;;22.15;26.16;97588.88;4944732;28;927;-74
2024/03/02 09:20:40;;;;;;;;;;;;;;;22.15;26.30;97584.00;4959947;28;935;-74
2024/03/02 09:23:06;;;;;;;;;;;;;;;21.55;26.97;97587.63;4959333;28;1172;-74
2024/03/02 09:25:31;;;;;;;;;;;;;;;21.57;26.86;97585.13;4959694;28;735;-73
2024/03/02 09:27:57;;;;;;;;;;;;;;;21.56;26.92;97577.09;4959773;28;862;-75
2024/03/02 09:30:23;;;;;;;;;;;;;;;21.54;27.17;97580.34;4943404;28;760;-74
2024/03/02 09:32:48;;;;;;;;;;;;;;;21.54;27.31;97585.22;4962751;28;1136;-74
2024/03/02 09:35:14;;;;;;;;;;;;;;;21.76;26.79;97579.63;4940201;29;1907;-74
2024/03/02 09:37:39;;;;;;;;;;;;;;;22.14;26.26;97582.41;4940294;29;1153;-74
2024/03/02 09:40:06;;;;;;;;;;;;;;;22.03;26.17;97581.97;4940304;29;1232;-74
2024/03/02 09:42:32;;;;;;;;;;;;;;;21.58;26.80;97574.59;4925036;29;1218;-75
2024/03/02 09:44:57;;;;;;;;;;;;;;;21.09;27.83;97572.09;4952624;28;1241;-74
2024/03/02 09:47:23;;;;;;;;;;;;;;;21.52;27.54;97567.91;4995321;28;837;-74
2024/03/02 09:49:49;;;;;;;;;;;;;;;21.77;27.02;97570.72;4994458;28;893;-74
2024/03/02 09:52:15;;;;;;;;;;;;;;;22.11;26.34;97574.81;4994958;28;1139;-75
2024/03/02 09:54:40;;;;;;;;;;;;;;;22.16;26.29;97567.78;4978559;28;1915;-74
2024/03/02 09:57:06;;;;;;;;;;;;;;;21.85;26.59;97557.88;4979376;28;1125;-75
2024/03/02 09:59:31;;;;;;;;;;;;;;;21.65;26.82;97568.69;4978482;28;768;-74
2024/03/02 10:02:00;;;;;;;;;;;;;;;21.76;26.76;97562.66;4994602;28;915;-74
2024/03/02 10:04:26;;;;;;;;;;;;;;;21.43;27.03;97559.31;4978684;28;1476;-75
2024/03/02 10:06:52;;;;;;;;;;;;;;;21.82;26.91;97550.31;5009868;28;822;-74
2024/03/02 10:09:36;;;;;;;;;;;;;;;21.90;26.72;97547.22;5035612;28;762;-74
2024/03/02 10:12:05;;;;;;;;;;;;;;;21.90;26.91;97562.16;5035230;28;1044;-75
2024/03/02 10:14:30;;;;;;;;;;;;;;;22.06;26.62;97552.72;5036107;28;1906;-74
2024/03/02 10:16:56;;;;;;;;;;;;;;;21.95;26.63;97549.47;5035445;28;779;-75
2024/03/02 10:19:22;;;;;;;;;;;;;;;21.55;27.12;97541.50;5035527;28;811;-73
2024/03/02 10:21:51;;;;;;;;;;;;;;;21.36;27.55;97548.25;5020097;28;1449;-74
2024/03/02 10:24:20;;;;;;;;;;;;;;;21.75;26.90;97544.06;5038756;28;869;-74
2024/03/02 10:26:46;;;;;;;;;;;;;;;21.87;26.81;97548.16;5022583;28;787;-75
2024/03/02 10:29:11;;;;;;;;;;;;;;;22.04;26.61;97543.88;5022283;28;810;-74
2024/03/02 10:31:37;;;;;;;;;;;;;;;22.07;26.65;97540.13;5022634;28;1411;-74
2024/03/02 10:34:03;;;;;;;;;;;;;;;21.59;26.96;97531.66;5038954;28;1978;-75
2024/03/02 10:36:29;;;;;;;;;;;;;;;21.72;27.00;97534.47;5039437;28;745;-74
2024/03/02 10:38:56;;;;;;;;;;;;;;;21.65;26.81;97534.69;5022322;28;1119;-74
2024/03/02 10:41:26;;;;;;;;;;;;;;;21.72;27.22;97539.34;5022635;28;1266;-75
2024/03/02 10:43:52;;;;;;;;;;;;;;;21.63;27.03;97531.53;5038591;28;716;-76
2024/03/02 10:46:19;;;;;;;;;;;;;;;21.98;26.72;97532.34;5038762;28;775;-75
2024/03/02 10:48:45;;;;;;;;;;;;;;;21.79;26.86;97534.22;5038729;28;703;-74
2024/03/02 10:51:11;;;;;;;;;;;;;;;21.78;27.00;97526.97;5001403;28;1144;-74
2024/03/02 10:53:36;;;;;;;;;;;;;;;21.32;27.63;97506.69;5017327;28;922;-74
2024/03/02 10:56:04;;;;;;;;;;;;;;;21.30;27.40;97514.84;4962601;28;1978;-74
2024/03/02 10:58:32;;;;;;;;;;;;;;;21.33;27.51;97513.13;4962654;28;987;-74
2024/03/02 11:00:58;;;;;;;;;;;;;;;21.88;27.01;97513.69;4962615;28;941;-75
2024/03/02 11:03:23;;;;;;;;;;;;;;;21.91;26.82;97509.13;4962326;28;689;-74
2024/03/02 11:05:48;;;;;;;;;;;;;;;21.92;26.78;97502.25;4962828;28;783;-74
2024/03/02 11:08:16;;;;;;;;;;;;;;;21.90;26.92;97505.50;4946031;28;1009;-75
2024/03/02 11:10:52;;;;;;;;;;;;;;;21.79;26.77;97502.28;4962784;28;794;-74
2024/03/02 11:13:19;;;;;;;;;;;;;;;21.36;27.28;97506.59;4945905;28;749;-74
2024/03/02 11:15:45;;;;;;;;;;;;;;;21.56;27.20;97504.28;4962227;28;1907;-75
2024/03/02 11:18:10;;;;;;;;;;;;;;;21.92;26.90;97513.56;4962055;28;796;-74
2024/03/02 11:20:37;;;;;;;;;;;;;;;21.90;26.94;97504.72;4962554;28;780;-74
2024/03/02 11:23:09;;;;;;;;;;;;;;;22.04;26.63;97501.38;4962696;28;1093;-75
2024/03/02 11:25:34;;;;;;;;;;;;;;;22.19;26.36;97496.81;4997412;28;720;-75
2024/03/02 11:28:01;;;;;;;;;;;;;;;21.82;26.71;97505.00;5032359;28;813;-75
2024/03/02 11:30:33;;;;;;;;;;;;;;;21.50;27.22;97500.44;5038130;28;723;-75
2024/03/02 11:33:08;;;;;;;;;;;;;;;21.44;27.28;97507.13;5039249;28;715;-75
2024/03/02 11:35:39;;;;;;;;;;;;;;;21.79;26.86;97497.41;5037879;28;1898;-74
2024/03/02 11:38:05;;;;;;;;;;;;;;;21.96;26.77;97502.88;5037351;28;1131;-74
2024/03/02 11:40:30;;;;;;;;;;;;;;;21.89;26.71;97491.81;5037620;28;1117;-74
2024/03/02 11:42:59;;;;;;;;;;;;;;;22.04;26.56;97499.34;5038783;28;821;-74
2024/03/02 11:45:25;;;;;;;;;;;;;;;21.86;26.72;97493.50;5037563;28;739;-75
2024/03/02 11:47:50;;;;;;;;;;;;;;;21.61;26.95;97494.41;5037951;28;795;-75
2024/03/02 11:50:28;;;;;;;;;;;;;;;21.35;27.35;97490.84;5016501;28;1131;-74
2024/03/02 11:52:53;;;;;;;;;;;;;;;21.84;26.54;97491.16;4967896;28;1067;-75
2024/03/02 11:55:19;;;;;;;;;;;;;;;21.85;26.83;97486.28;5000554;28;1908;-74
2024/03/02 11:57:45;;;;;;;;;;;;;;;21.98;26.55;97495.53;5000362;28;807;-74
2024/03/02 12:00:19;;;;;;;;;;;;;;;22.22;26.47;97498.72;4983735;28;1199;-75
2024/03/02 12:02:49;;;;;;;;;;;;;;;22.04;26.33;97488.00;5000206;28;791;-75
2024/03/02 12:05:18;;;;;;;;;;;;;;;21.67;27.03;97486.91;4984517;28;776;-74
2024/03/02 12:07:44;;;;;;;;;;;;;;;21.58;26.91;97484.00;5000079;28;810;-75
2024/03/02 12:10:10;;;;;;;;;;;;;;;21.51;27.36;97484.25;5000106;28;932;-74
2024/03/02 12:12:35;;;;;;;;;;;;;;;21.71;26.99;97479.09;4984030;28;974;-74
2024/03/02 12:15:01;;;;;;;;;;;;;;;21.93;26.70;97484.00;5016233;28;1982;-74
2024/03/02 12:17:27;;;;;;;;;;;;;;;21.98;26.72;97474.91;5000591;28;712;-74
2024/03/02 12:19:52;;;;;;;;;;;;;;;21.87;26.90;97477.34;4983402;28;752;-75
2024/03/02 12:22:18;;;;;;;;;;;;;;;21.75;26.87;97476.91;5037032;28;755;-75
2024/03/02 12:24:45;;;;;;;;;;;;;;;21.62;27.16;97478.22;5036817;28;1064;-75
2024/03/02 12:27:11;;;;;;;;;;;;;;;21.50;27.18;97471.31;5020865;28;791;-75
2024/03/02 12:29:36;;;;;;;;;;;;;;;21.93;26.83;97481.16;5036973;28;728;-74
2024/03/02 12:32:02;;;;;;;;;;;;;;;21.92;26.87;97473.91;5038474;28;775;-74
2024/03/02 12:34:27;;;;;;;;;;;;;;;21.93;26.91;97476.28;5036810;28;1969;-75
2024/03/02 12:36:53;;;;;;;;;;;;;;;21.91;27.13;97475.94;5036944;28;787;-74
2024/03/02 12:39:18;;;;;;;;;;;;;;;21.67;27.24;97478.41;5036771;28;1003;-74
2024/03/02 12:41:44;;;;;;;;;;;;;;;21.60;27.37;97475.81;5037069;28;790;-75
2024/03/02 12:44:10;;;;;;;;;;;;;;;21.40;27.59;97475.31;4998672;28;1180;-74
2024/03/02 12:46:36;;;;;;;;;;;;;;;21.76;27.37;97472.03;5016127;28;826;-74
2024/03/02 12:49:11;;;;;;;;;;;;;;;22.05;26.88;97483.13;4959962;28;1225;-74
2024/03/02 12:51:37;;;;;;;;;;;;;;;22.04;26.69;97481.56;4944600;28;1152;-75
2024/03/02 12:54:03;;;;;;;;;;;;;;;21.89;26.98;97474.81;4960306;28;902;-74
2024/03/02 12:56:28;;;;;;;;;;;;;;;21.79;27.17;97477.56;4960392;28;1971;-75
2024/03/02 12:58:54;;;;;;;;;;;;;;;21.74;27.03;97481.00;4944485;28;1158;-74
2024/03/02 13:01:20;;;;;;;;;;;;;;;21.29;27.77;97484.13;4960092;28;1245;-74
2024/03/02 13:03:47;;;;;;;;;;;;;;;21.53;27.80;97481.75;4943928;28;1263;-74